createdAt,value
2018-06-02T00:00:27.299Z,8.00
2018-06-02T00:01:27.730Z,8.00
2018-06-02T00:02:27.646Z,4.00
2018-06-02T00:03:27.221Z,8.00
2018-06-02T00:04:27.235Z,4.00
2018-06-02T00:05:27.282Z,4.00
2018-06-02T00:06:27.182Z,0.00
2018-06-02T00:07:27.320Z,4.00
2018-06-02T00:08:27.225Z,0.00
2018-06-02T00:09:27.171Z,0.00
2018-06-02T00:10:27.201Z,4.00
2018-06-02T00:11:27.141Z,0.00
2018-06-02T00:12:27.162Z,0.00
2018-06-02T00:13:27.247Z,0.00
2018-06-02T00:14:27.112Z,0.00
2018-06-02T00:15:27.003Z,0.00
2018-06-02T00:16:27.014Z,0.00
2018-06-02T00:17:27.075Z,0.00
2018-06-02T00:18:26.960Z,0.00
2018-06-02T00:19:26.937Z,0.00
2018-06-02T00:20:26.962Z,0.00
2018-06-02T00:21:26.962Z,0.00
2018-06-02T00:22:26.901Z,0.00
2018-06-02T00:23:26.767Z,0.00
2018-06-02T00:24:26.765Z,0.00
2018-06-02T00:25:26.856Z,0.00
2018-06-02T00:26:26.836Z,0.00
2018-06-02T00:27:26.815Z,0.00
2018-06-02T00:28:26.748Z,0.00
2018-06-02T00:29:26.598Z,0.00
2018-06-02T00:30:26.734Z,0.00
2018-06-02T00:31:26.702Z,0.00
2018-06-02T00:32:26.795Z,0.00
2018-06-02T00:33:26.679Z,0.00
2018-06-02T00:34:26.619Z,0.00
2018-06-02T00:35:26.571Z,0.00
2018-06-02T00:36:26.425Z,0.00
2018-06-02T00:37:26.475Z,0.00
2018-06-02T00:38:26.465Z,0.00
2018-06-02T00:39:26.361Z,0.00
2018-06-02T00:40:26.331Z,0.00
2018-06-02T00:41:26.315Z,0.00
2018-06-02T00:42:26.305Z,0.00
2018-06-02T00:43:26.347Z,0.00
2018-06-02T00:44:26.246Z,0.00
2018-06-02T00:45:26.230Z,0.00
2018-06-02T00:46:26.200Z,0.00
2018-06-02T00:47:26.166Z,0.00
2018-06-02T00:48:26.225Z,0.00
2018-06-02T00:49:26.113Z,0.00
2018-06-02T00:50:26.092Z,0.00
2018-06-02T00:51:26.090Z,0.00
2018-06-02T00:52:26.043Z,0.00
2018-06-02T00:53:26.046Z,0.00
2018-06-02T00:54:26.000Z,0.00
2018-06-02T00:55:25.980Z,0.00
2018-06-02T00:56:25.987Z,0.00
2018-06-02T00:57:25.971Z,0.00
2018-06-02T00:58:25.994Z,0.00
2018-06-02T00:59:25.921Z,0.00
2018-06-02T01:00:25.857Z,0.00
2018-06-02T01:01:25.849Z,0.00
2018-06-02T01:02:25.842Z,0.00
2018-06-02T01:03:25.908Z,0.00
2018-06-02T01:04:25.789Z,0.00
2018-06-02T01:05:25.761Z,0.00
2018-06-02T01:06:25.707Z,0.00
2018-06-02T01:07:25.706Z,0.00
2018-06-02T01:08:25.822Z,0.00
2018-06-02T01:09:25.652Z,0.00
2018-06-02T01:10:25.737Z,0.00
2018-06-02T01:11:25.762Z,0.00
2018-06-02T01:12:25.730Z,0.00
2018-06-02T01:13:25.577Z,0.00
2018-06-02T01:14:25.690Z,0.00
2018-06-02T01:15:25.505Z,0.00
2018-06-02T01:16:25.474Z,0.00
2018-06-02T01:17:25.730Z,0.00
2018-06-02T01:18:25.441Z,0.00
2018-06-02T01:19:25.432Z,0.00
2018-06-02T01:20:25.442Z,0.00
2018-06-02T01:21:25.365Z,0.00
2018-06-02T01:22:25.316Z,0.00
2018-06-02T01:23:25.283Z,0.00
2018-06-02T01:24:25.286Z,0.00
2018-06-02T01:25:25.308Z,0.00
2018-06-02T01:26:25.738Z,0.00
2018-06-02T01:27:25.199Z,0.00
2018-06-02T01:28:25.707Z,0.00
2018-06-02T01:29:25.152Z,0.00
2018-06-02T01:30:25.201Z,0.00
2018-06-02T01:31:25.151Z,0.00
2018-06-02T01:32:25.115Z,0.00
2018-06-02T01:33:25.640Z,0.00
2018-06-02T01:34:24.993Z,0.00
2018-06-02T01:35:25.099Z,0.00
2018-06-02T01:36:25.564Z,0.00
2018-06-02T01:37:25.586Z,0.00
2018-06-02T01:38:25.885Z,0.00
2018-06-02T01:39:24.916Z,0.00
2018-06-02T01:40:25.024Z,0.00
2018-06-02T01:41:24.843Z,0.00
2018-06-02T01:42:24.821Z,0.00
2018-06-02T01:43:24.865Z,0.00
2018-06-02T01:44:24.775Z,0.00
2018-06-02T01:45:24.920Z,0.00
2018-06-02T01:46:24.737Z,0.00
2018-06-02T01:47:24.718Z,0.00
2018-06-02T01:48:24.666Z,0.00
2018-06-02T01:49:25.193Z,0.00
2018-06-02T01:50:24.678Z,0.00
2018-06-02T01:51:24.697Z,0.00
2018-06-02T01:52:24.762Z,0.00
2018-06-02T01:53:24.561Z,0.00
2018-06-02T01:54:24.575Z,0.00
2018-06-02T01:55:24.517Z,0.00
2018-06-02T01:56:24.647Z,0.00
2018-06-02T01:57:24.473Z,0.00
2018-06-02T01:58:24.443Z,0.00
2018-06-02T01:59:24.442Z,0.00
2018-06-02T02:00:24.407Z,0.00
2018-06-02T02:01:24.354Z,0.00
2018-06-02T02:02:24.425Z,0.00
2018-06-02T02:03:24.321Z,0.00
2018-06-02T02:04:24.262Z,0.00
2018-06-02T02:05:24.797Z,0.00
2018-06-02T02:06:24.285Z,0.00
2018-06-02T02:07:24.263Z,0.00
2018-06-02T02:08:24.186Z,0.00
2018-06-02T02:09:24.408Z,0.00
2018-06-02T02:10:24.228Z,0.00
2018-06-02T02:11:24.155Z,0.00
2018-06-02T02:12:24.182Z,0.00
2018-06-02T02:13:24.062Z,0.00
2018-06-02T02:14:24.024Z,0.00
2018-06-02T02:15:24.045Z,0.00
2018-06-02T02:16:24.009Z,0.00
2018-06-02T02:17:24.104Z,0.00
2018-06-02T02:18:23.988Z,0.00
2018-06-02T02:19:23.913Z,0.00
2018-06-02T02:20:23.879Z,0.00
2018-06-02T02:21:23.851Z,0.00
2018-06-02T02:22:23.959Z,0.00
2018-06-02T02:23:23.915Z,0.00
2018-06-02T02:24:23.781Z,0.00
2018-06-02T02:25:23.761Z,0.00
2018-06-02T02:26:23.770Z,0.00
2018-06-02T02:27:23.779Z,0.00
2018-06-02T02:28:23.711Z,0.00
2018-06-02T02:29:23.681Z,0.00
2018-06-02T02:30:23.698Z,0.00
2018-06-02T02:31:24.130Z,0.00
2018-06-02T02:32:23.579Z,0.00
2018-06-02T02:33:23.867Z,0.00
2018-06-02T02:34:23.611Z,0.00
2018-06-02T02:35:23.535Z,0.00
2018-06-02T02:36:23.496Z,0.00
2018-06-02T02:37:23.469Z,0.00
2018-06-02T02:38:23.447Z,0.00
2018-06-02T02:39:23.453Z,0.00
2018-06-02T02:40:23.415Z,0.00
2018-06-02T02:41:23.340Z,0.00
2018-06-02T02:42:23.361Z,0.00
2018-06-02T02:43:23.313Z,0.00
2018-06-02T02:44:23.365Z,0.00
2018-06-02T02:45:23.245Z,0.00
2018-06-02T02:46:23.263Z,0.00
2018-06-02T02:47:23.240Z,0.00
2018-06-02T02:48:23.162Z,0.00
2018-06-02T02:49:23.316Z,0.00
2018-06-02T02:50:23.653Z,0.00
2018-06-02T02:51:23.095Z,0.00
2018-06-02T02:52:23.048Z,0.00
2018-06-02T02:53:23.032Z,0.00
2018-06-02T02:54:23.114Z,0.00
2018-06-02T02:55:23.006Z,0.00
2018-06-02T02:56:22.971Z,0.00
2018-06-02T02:57:22.931Z,0.00
2018-06-02T02:58:22.920Z,0.00
2018-06-02T02:59:23.046Z,0.00
2018-06-02T03:00:23.424Z,0.00
2018-06-02T03:01:22.823Z,0.00
2018-06-02T03:02:22.809Z,0.00
2018-06-02T03:03:22.790Z,0.00
2018-06-02T03:04:22.841Z,0.00
2018-06-02T03:05:22.799Z,0.00
2018-06-02T03:06:22.721Z,0.00
2018-06-02T03:07:22.690Z,0.00
2018-06-02T03:08:22.709Z,0.00
2018-06-02T03:09:22.676Z,0.00
2018-06-02T03:10:22.719Z,0.00
2018-06-02T03:11:22.638Z,0.00
2018-06-02T03:12:22.583Z,0.00
2018-06-02T03:13:22.551Z,0.00
2018-06-02T03:14:23.060Z,0.00
2018-06-02T03:15:22.533Z,0.00
2018-06-02T03:16:22.550Z,0.00
2018-06-02T03:17:22.468Z,0.00
2018-06-02T03:18:22.454Z,0.00
2018-06-02T03:19:22.430Z,0.00
2018-06-02T03:20:22.390Z,0.00
2018-06-02T03:21:22.411Z,0.00
2018-06-02T03:22:22.342Z,0.00
2018-06-02T03:23:22.284Z,0.00
2018-06-02T03:24:22.300Z,0.00
2018-06-02T03:25:22.274Z,0.00
2018-06-02T03:26:22.355Z,0.00
2018-06-02T03:27:22.227Z,0.00
2018-06-02T03:28:22.172Z,0.00
2018-06-02T03:29:22.164Z,0.00
2018-06-02T03:30:22.127Z,0.00
2018-06-02T03:31:22.211Z,0.00
2018-06-02T03:32:22.084Z,0.00
2018-06-02T03:33:22.063Z,0.00
2018-06-02T03:34:22.042Z,0.00
2018-06-02T03:35:21.995Z,0.00
2018-06-02T03:36:22.044Z,0.00
2018-06-02T03:37:22.074Z,0.00
2018-06-02T03:38:21.932Z,0.00
2018-06-02T03:39:22.007Z,0.00
2018-06-02T03:40:22.015Z,0.00
2018-06-02T03:41:21.938Z,0.00
2018-06-02T03:42:22.880Z,0.00
2018-06-02T03:43:21.928Z,0.00
2018-06-02T03:44:21.840Z,0.00
2018-06-02T03:45:21.820Z,0.00
2018-06-02T03:46:21.715Z,0.00
2018-06-02T03:47:21.916Z,0.00
2018-06-02T03:48:21.787Z,0.00
2018-06-02T03:49:21.692Z,0.00
2018-06-02T03:50:21.709Z,0.00
2018-06-02T03:51:21.619Z,0.00
2018-06-02T03:52:21.759Z,0.00
2018-06-02T03:53:21.649Z,0.00
2018-06-02T03:54:21.621Z,0.00
2018-06-02T03:55:21.667Z,0.00
2018-06-02T03:56:21.575Z,0.00
2018-06-02T03:57:21.627Z,0.00
2018-06-02T03:58:21.671Z,0.00
2018-06-02T03:59:21.470Z,0.00
2018-06-02T04:00:21.481Z,0.00
2018-06-02T04:01:21.409Z,0.00
2018-06-02T04:02:21.308Z,0.00
2018-06-02T04:03:21.382Z,0.00
2018-06-02T04:04:21.229Z,0.00
2018-06-02T04:05:21.238Z,0.00
2018-06-02T04:06:21.187Z,0.00
2018-06-02T04:07:21.163Z,0.00
2018-06-02T04:08:21.311Z,0.00
2018-06-02T04:09:21.108Z,0.00
2018-06-02T04:10:21.076Z,0.00
2018-06-02T04:11:21.065Z,0.00
2018-06-02T04:12:21.061Z,0.00
2018-06-02T04:13:21.090Z,0.00
2018-06-02T04:14:21.055Z,0.00
2018-06-02T04:15:21.002Z,0.00
2018-06-02T04:16:20.939Z,0.00
2018-06-02T04:17:20.990Z,0.00
2018-06-02T04:18:20.928Z,0.00
2018-06-02T04:19:20.986Z,0.00
2018-06-02T04:20:20.848Z,0.00
2018-06-02T04:21:20.854Z,0.00
2018-06-02T04:22:20.788Z,0.00
2018-06-02T04:23:20.751Z,0.00
2018-06-02T04:24:20.857Z,0.00
2018-06-02T04:25:20.707Z,0.00
2018-06-02T04:26:20.724Z,0.00
2018-06-02T04:27:20.657Z,0.00
2018-06-02T04:28:20.644Z,0.00
2018-06-02T04:29:20.698Z,0.00
2018-06-02T04:30:20.578Z,0.00
2018-06-02T04:31:20.542Z,0.00
2018-06-02T04:32:20.534Z,0.00
2018-06-02T04:33:20.611Z,0.00
2018-06-02T04:34:20.497Z,0.00
2018-06-02T04:35:20.539Z,0.00
2018-06-02T04:36:20.446Z,0.00
2018-06-02T04:37:20.393Z,0.00
2018-06-02T04:38:20.419Z,0.00
2018-06-02T04:39:20.389Z,0.00
2018-06-02T04:40:20.440Z,0.00
2018-06-02T04:41:20.325Z,0.00
2018-06-02T04:42:20.287Z,0.00
2018-06-02T04:43:20.290Z,0.00
2018-06-02T04:44:20.221Z,0.00
2018-06-02T04:45:20.314Z,0.00
2018-06-02T04:46:20.209Z,0.00
2018-06-02T04:47:20.168Z,0.00
2018-06-02T04:48:20.133Z,0.00
2018-06-02T04:49:20.103Z,0.00
2018-06-02T04:50:20.161Z,0.00
2018-06-02T04:51:20.042Z,0.00
2018-06-02T04:52:20.006Z,0.00
2018-06-02T04:53:19.978Z,0.00
2018-06-02T04:54:19.968Z,0.00
2018-06-02T04:55:19.974Z,0.00
2018-06-02T04:56:19.959Z,0.00
2018-06-02T04:57:19.969Z,0.00
2018-06-02T04:58:19.874Z,0.00
2018-06-02T04:59:19.843Z,0.00
2018-06-02T05:00:19.854Z,0.00
2018-06-02T05:01:19.879Z,0.00
2018-06-02T05:02:19.796Z,0.00
2018-06-02T05:03:19.745Z,0.00
2018-06-02T05:04:19.709Z,0.00
2018-06-02T05:05:19.687Z,0.00
2018-06-02T05:06:19.834Z,0.00
2018-06-02T05:07:19.680Z,0.00
2018-06-02T05:08:19.607Z,0.00
2018-06-02T05:09:19.615Z,0.00
2018-06-02T05:10:19.657Z,0.00
2018-06-02T05:11:19.673Z,0.00
2018-06-02T05:12:19.606Z,0.00
2018-06-02T05:13:19.714Z,0.00
2018-06-02T05:14:19.459Z,0.00
2018-06-02T05:15:19.438Z,0.00
2018-06-02T05:16:19.439Z,0.00
2018-06-02T05:17:19.492Z,0.00
2018-06-02T05:18:19.360Z,0.00
2018-06-02T05:19:19.347Z,0.00
2018-06-02T05:20:19.317Z,0.00
2018-06-02T05:21:19.301Z,0.00
2018-06-02T05:22:19.243Z,0.00
2018-06-02T05:23:19.312Z,0.00
2018-06-02T05:24:19.196Z,0.00
2018-06-02T05:25:19.184Z,0.00
2018-06-02T05:26:19.136Z,0.00
2018-06-02T05:27:19.115Z,0.00
2018-06-02T05:28:19.190Z,0.00
2018-06-02T05:29:19.089Z,0.00
2018-06-02T05:30:19.037Z,0.00
2018-06-02T05:31:19.144Z,0.00
2018-06-02T05:32:19.004Z,0.00
2018-06-02T05:33:19.018Z,0.00
2018-06-02T05:34:18.949Z,0.00
2018-06-02T05:35:18.934Z,0.00
2018-06-02T05:36:18.904Z,0.00
2018-06-02T05:37:18.912Z,0.00
2018-06-02T05:38:18.956Z,0.00
2018-06-02T05:39:18.810Z,0.00
2018-06-02T05:40:18.807Z,0.00
2018-06-02T05:41:18.774Z,0.00
2018-06-02T05:42:18.732Z,0.00
2018-06-02T05:43:18.824Z,0.00
2018-06-02T05:44:18.705Z,0.00
2018-06-02T05:45:18.703Z,0.00
2018-06-02T05:46:18.647Z,0.00
2018-06-02T05:47:18.627Z,0.00
2018-06-02T05:48:18.691Z,0.00
2018-06-02T05:49:18.570Z,0.00
2018-06-02T05:50:18.571Z,0.00
2018-06-02T05:51:18.518Z,0.00
2018-06-02T05:52:18.512Z,0.00
2018-06-02T05:53:18.465Z,0.00
2018-06-02T05:54:18.530Z,0.00
2018-06-02T05:55:18.408Z,0.00
2018-06-02T05:56:18.385Z,0.00
2018-06-02T05:57:18.447Z,0.00
2018-06-02T05:58:18.378Z,0.00
2018-06-02T05:59:18.299Z,0.00
2018-06-02T06:00:18.341Z,0.00
2018-06-02T06:01:18.313Z,0.00
2018-06-02T06:02:18.250Z,0.00
2018-06-02T06:03:18.200Z,0.00
2018-06-02T06:04:18.170Z,0.00
2018-06-02T06:05:18.227Z,0.00
2018-06-02T06:06:18.156Z,0.00
2018-06-02T06:07:18.139Z,0.00
2018-06-02T06:08:18.087Z,0.00
2018-06-02T06:09:18.055Z,0.00
2018-06-02T06:10:18.070Z,0.00
2018-06-02T06:11:18.004Z,0.00
2018-06-02T06:12:17.955Z,0.00
2018-06-02T06:13:17.944Z,0.00
2018-06-02T06:14:17.932Z,0.00
2018-06-02T06:15:18.032Z,0.00
2018-06-02T06:16:17.876Z,0.00
2018-06-02T06:17:17.846Z,0.00
2018-06-02T06:18:17.813Z,0.00
2018-06-02T06:19:17.797Z,0.00
2018-06-02T06:20:17.915Z,0.00
2018-06-02T06:21:17.762Z,0.00
2018-06-02T06:22:17.698Z,0.00
2018-06-02T06:23:17.764Z,0.00
2018-06-02T06:24:17.673Z,0.00
2018-06-02T06:25:17.756Z,0.00
2018-06-02T06:26:17.608Z,0.00
2018-06-02T06:27:17.569Z,0.00
2018-06-02T06:28:17.568Z,0.00
2018-06-02T06:29:17.526Z,0.00
2018-06-02T06:30:17.623Z,0.00
2018-06-02T06:31:17.497Z,0.00
2018-06-02T06:32:17.471Z,0.00
2018-06-02T06:33:17.422Z,0.00
2018-06-02T06:34:17.389Z,0.00
2018-06-02T06:35:17.407Z,0.00
2018-06-02T06:36:17.458Z,0.00
2018-06-02T06:37:17.321Z,0.00
2018-06-02T06:38:17.309Z,0.00
2018-06-02T06:39:17.280Z,0.00
2018-06-02T06:40:17.244Z,0.00
2018-06-02T06:41:17.287Z,0.00
2018-06-02T06:42:17.300Z,0.00
2018-06-02T06:43:17.215Z,0.00
2018-06-02T06:44:17.139Z,0.00
2018-06-02T06:45:17.158Z,0.00
2018-06-02T06:46:17.115Z,0.00
2018-06-02T06:47:17.140Z,0.00
2018-06-02T06:48:17.053Z,0.00
2018-06-02T06:49:17.009Z,0.00
2018-06-02T06:50:17.000Z,0.00
2018-06-02T06:51:16.972Z,0.00
2018-06-02T06:52:17.095Z,0.00
2018-06-02T06:53:16.914Z,0.00
2018-06-02T06:54:16.884Z,0.00
2018-06-02T06:55:16.906Z,0.00
2018-06-02T06:56:16.833Z,0.00
2018-06-02T06:57:16.913Z,0.00
2018-06-02T06:58:16.802Z,0.00
2018-06-02T06:59:16.764Z,0.00
2018-06-02T07:00:16.772Z,0.00
2018-06-02T07:01:16.704Z,0.00
2018-06-02T07:02:16.866Z,0.00
2018-06-02T07:03:16.656Z,0.00
2018-06-02T07:04:16.644Z,0.00
2018-06-02T07:05:16.605Z,0.00
2018-06-02T07:06:16.584Z,0.00
2018-06-02T07:07:16.714Z,0.00
2018-06-02T07:08:16.535Z,0.00
2018-06-02T07:09:16.501Z,0.00
2018-06-02T07:10:16.501Z,0.00
2018-06-02T07:11:16.441Z,0.00
2018-06-02T07:12:16.523Z,0.00
2018-06-02T07:13:16.491Z,0.00
2018-06-02T07:14:16.374Z,0.00
2018-06-02T07:15:16.369Z,0.00
2018-06-02T07:16:16.336Z,0.00
2018-06-02T07:17:16.307Z,0.00
2018-06-02T07:18:16.261Z,0.00
2018-06-02T07:19:16.297Z,0.00
2018-06-02T07:20:16.239Z,0.00
2018-06-02T07:21:16.192Z,0.00
2018-06-02T07:22:16.247Z,0.00
2018-06-02T07:23:16.149Z,0.00
2018-06-02T07:24:16.173Z,0.00
2018-06-02T07:25:16.095Z,0.00
2018-06-02T07:26:16.087Z,0.00
2018-06-02T07:27:16.058Z,0.00
2018-06-02T07:28:16.020Z,0.00
2018-06-02T07:29:16.107Z,0.00
2018-06-02T07:30:15.971Z,0.00
2018-06-02T07:31:15.937Z,0.00
2018-06-02T07:32:15.958Z,0.00
2018-06-02T07:33:15.884Z,0.00
2018-06-02T07:34:15.992Z,0.00
2018-06-02T07:35:15.848Z,0.00
2018-06-02T07:36:15.814Z,0.00
2018-06-02T07:37:15.807Z,0.00
2018-06-02T07:38:15.771Z,0.00
2018-06-02T07:39:15.854Z,0.00
2018-06-02T07:40:15.713Z,0.00
2018-06-02T07:41:15.690Z,0.00
2018-06-02T07:42:15.672Z,0.00
2018-06-02T07:43:15.642Z,0.00
2018-06-02T07:44:15.762Z,0.00
2018-06-02T07:45:15.571Z,0.00
2018-06-02T07:46:15.538Z,0.00
2018-06-02T07:47:15.557Z,0.00
2018-06-02T07:48:15.509Z,0.00
2018-06-02T07:49:15.534Z,0.00
2018-06-02T07:50:15.564Z,0.00
2018-06-02T07:51:15.435Z,0.00
2018-06-02T07:52:15.422Z,0.00
2018-06-02T07:53:15.375Z,0.00
2018-06-02T07:54:15.347Z,0.00
2018-06-02T07:55:15.320Z,0.00
2018-06-02T07:56:15.363Z,0.00
2018-06-02T07:57:15.261Z,0.00
2018-06-02T07:58:15.231Z,0.00
2018-06-02T07:59:15.234Z,0.00
2018-06-02T08:00:15.199Z,0.00
2018-06-02T08:01:15.217Z,0.00
2018-06-02T08:02:15.151Z,0.00
2018-06-02T08:03:15.101Z,0.00
2018-06-02T08:04:15.136Z,0.00
2018-06-02T08:05:15.074Z,0.00
2018-06-02T08:06:15.153Z,0.00
2018-06-02T08:07:15.028Z,0.00
2018-06-02T08:08:14.989Z,0.00
2018-06-02T08:09:14.968Z,0.00
2018-06-02T08:10:14.924Z,0.00
2018-06-02T08:11:14.995Z,0.00
2018-06-02T08:12:14.883Z,0.00
2018-06-02T08:13:14.897Z,0.00
2018-06-02T08:14:14.814Z,0.00
2018-06-02T08:15:14.796Z,0.00
2018-06-02T08:16:14.911Z,0.00
2018-06-02T08:17:14.766Z,0.00
2018-06-02T08:18:14.716Z,0.00
2018-06-02T08:19:14.775Z,0.00
2018-06-02T08:20:14.676Z,0.00
2018-06-02T08:21:14.686Z,0.00
2018-06-02T08:22:14.625Z,0.00
2018-06-02T08:23:14.605Z,0.00
2018-06-02T08:24:14.572Z,0.00
2018-06-02T08:25:14.569Z,0.00
2018-06-02T08:26:14.601Z,0.00
2018-06-02T08:27:14.602Z,0.00
2018-06-02T08:28:14.472Z,0.00
2018-06-02T08:29:14.504Z,0.00
2018-06-02T08:30:14.428Z,0.00
2018-06-02T08:31:14.403Z,0.00
2018-06-02T08:32:14.375Z,0.00
2018-06-02T08:33:14.395Z,0.00
2018-06-02T08:34:14.323Z,0.00
2018-06-02T08:35:14.334Z,0.00
2018-06-02T08:36:14.248Z,0.00
2018-06-02T08:37:14.230Z,0.00
2018-06-02T08:38:14.251Z,0.00
2018-06-02T08:39:14.179Z,0.00
2018-06-02T08:40:14.175Z,0.00
2018-06-02T08:41:14.153Z,0.00
2018-06-02T08:42:14.122Z,0.00
2018-06-02T08:43:14.173Z,0.00
2018-06-02T08:44:14.068Z,0.00
2018-06-02T08:45:14.022Z,0.00
2018-06-02T08:46:14.017Z,0.00
2018-06-02T08:47:13.981Z,0.00
2018-06-02T08:48:14.063Z,0.00
2018-06-02T08:49:13.937Z,0.00
2018-06-02T08:50:13.918Z,0.00
2018-06-02T08:51:13.872Z,0.00
2018-06-02T08:52:13.848Z,0.00
2018-06-02T08:53:13.930Z,0.00
2018-06-02T08:54:13.805Z,0.00
2018-06-02T08:55:13.764Z,0.00
2018-06-02T08:56:13.750Z,0.00
2018-06-02T08:57:13.728Z,0.00
2018-06-02T08:58:13.743Z,0.00
2018-06-02T08:59:13.723Z,0.00
2018-06-02T09:00:13.646Z,0.00
2018-06-02T09:01:13.628Z,0.00
2018-06-02T09:02:13.632Z,0.00
2018-06-02T09:03:13.581Z,0.00
2018-06-02T09:04:13.641Z,0.00
2018-06-02T09:05:13.511Z,0.00
2018-06-02T09:06:13.501Z,0.00
2018-06-02T09:07:13.455Z,0.00
2018-06-02T09:08:13.453Z,0.00
2018-06-02T09:09:13.405Z,0.00
2018-06-02T09:10:13.425Z,0.00
2018-06-02T09:11:13.369Z,0.00
2018-06-02T09:12:13.325Z,0.00
2018-06-02T09:13:13.303Z,0.00
2018-06-02T09:14:13.289Z,0.00
2018-06-02T09:15:13.248Z,0.00
2018-06-02T09:16:13.261Z,0.00
2018-06-02T09:17:13.223Z,0.00
2018-06-02T09:18:13.184Z,0.00
2018-06-02T09:19:13.149Z,0.00
2018-06-02T09:20:13.160Z,0.00
2018-06-02T09:21:13.108Z,0.00
2018-06-02T09:22:13.078Z,0.00
2018-06-02T09:23:13.049Z,0.00
2018-06-02T09:24:13.025Z,0.00
2018-06-02T09:25:13.096Z,0.00
2018-06-02T09:26:12.961Z,0.00
2018-06-02T09:27:12.947Z,0.00
2018-06-02T09:28:12.915Z,0.00
2018-06-02T09:29:12.891Z,0.00
2018-06-02T09:30:12.960Z,0.00
2018-06-02T09:31:12.834Z,0.00
2018-06-02T09:32:12.813Z,0.00
2018-06-02T09:33:12.771Z,0.00
2018-06-02T09:34:12.751Z,0.00
2018-06-02T09:35:12.946Z,0.00
2018-06-02T09:36:12.728Z,0.00
2018-06-02T09:37:12.671Z,0.00
2018-06-02T09:38:12.652Z,0.00
2018-06-02T09:39:12.673Z,0.00
2018-06-02T09:40:12.616Z,0.00
2018-06-02T09:41:12.620Z,0.00
2018-06-02T09:42:12.565Z,0.00
2018-06-02T09:43:12.540Z,0.00
2018-06-02T09:44:12.501Z,0.00
2018-06-02T09:45:12.531Z,0.00
2018-06-02T09:46:12.561Z,0.00
2018-06-02T09:47:12.431Z,0.00
2018-06-02T09:48:12.385Z,0.00
2018-06-02T09:49:12.380Z,0.00
2018-06-02T09:50:12.342Z,0.00
2018-06-02T09:51:12.332Z,0.00
2018-06-02T09:52:12.413Z,0.00
2018-06-02T09:53:12.283Z,0.00
2018-06-02T09:54:12.227Z,0.00
2018-06-02T09:55:12.216Z,0.00
2018-06-02T09:56:12.212Z,0.00
2018-06-02T09:57:12.147Z,0.00
2018-06-02T09:58:12.144Z,0.00
2018-06-02T09:59:12.124Z,0.00
2018-06-02T10:00:12.054Z,0.00
2018-06-02T10:01:12.048Z,0.00
2018-06-02T10:02:12.123Z,0.00
2018-06-02T10:03:12.042Z,0.00
2018-06-02T10:04:12.015Z,0.00
2018-06-02T10:05:11.960Z,0.00
2018-06-02T10:06:11.956Z,0.00
2018-06-02T10:07:12.019Z,0.00
2018-06-02T10:08:11.870Z,0.00
2018-06-02T10:09:11.878Z,0.00
2018-06-02T10:10:11.820Z,0.00
2018-06-02T10:11:11.795Z,0.00
2018-06-02T10:12:11.789Z,0.00
2018-06-02T10:13:11.829Z,0.00
2018-06-02T10:14:11.744Z,0.00
2018-06-02T10:15:11.690Z,0.00
2018-06-02T10:16:11.669Z,0.00
2018-06-02T10:17:11.659Z,0.00
2018-06-02T10:18:11.727Z,0.00
2018-06-02T10:19:11.624Z,0.00
2018-06-02T10:20:11.607Z,0.00
2018-06-02T10:21:11.540Z,0.00
2018-06-02T10:22:11.567Z,0.00
2018-06-02T10:23:11.581Z,0.00
2018-06-02T10:24:11.500Z,0.00
2018-06-02T10:25:11.440Z,0.00
2018-06-02T10:26:11.427Z,0.00
2018-06-02T10:27:11.401Z,0.00
2018-06-02T10:28:11.368Z,0.00
2018-06-02T10:29:11.384Z,0.00
2018-06-02T10:30:11.325Z,0.00
2018-06-02T10:31:11.287Z,0.00
2018-06-02T10:32:11.246Z,0.00
2018-06-02T10:33:11.238Z,0.00
2018-06-02T10:34:11.285Z,0.00
2018-06-02T10:35:11.166Z,0.00
2018-06-02T10:36:11.243Z,0.00
2018-06-02T10:37:11.139Z,0.00
2018-06-02T10:38:11.110Z,0.00
2018-06-02T10:39:11.181Z,0.00
2018-06-02T10:40:11.036Z,0.00
2018-06-02T10:41:11.024Z,0.00
2018-06-02T10:42:10.989Z,0.00
2018-06-02T10:43:10.985Z,0.00
2018-06-02T10:44:11.005Z,0.00
2018-06-02T10:45:10.959Z,0.00
2018-06-02T10:46:10.904Z,0.00
2018-06-02T10:47:10.875Z,0.00
2018-06-02T10:48:10.836Z,0.00
2018-06-02T10:49:10.813Z,0.00
2018-06-02T10:50:10.848Z,0.00
2018-06-02T10:51:10.831Z,0.00
2018-06-02T10:52:10.813Z,0.00
2018-06-02T10:53:10.723Z,0.00
2018-06-02T10:54:10.681Z,0.00
2018-06-02T10:55:10.777Z,0.00
2018-06-02T10:56:10.637Z,0.00
2018-06-02T10:57:10.628Z,0.00
2018-06-02T10:58:10.592Z,0.00
2018-06-02T10:59:10.542Z,0.00
2018-06-02T11:00:10.631Z,0.00
2018-06-02T11:01:10.504Z,0.00
2018-06-02T11:02:10.476Z,0.00
2018-06-02T11:03:10.460Z,0.00
2018-06-02T11:04:10.458Z,0.00
2018-06-02T11:05:10.382Z,0.00
2018-06-02T11:06:10.422Z,4.00
2018-06-02T11:07:10.351Z,4.00
2018-06-02T11:08:10.326Z,0.00
2018-06-02T11:09:10.280Z,4.00
2018-06-02T11:10:10.471Z,0.00
2018-06-02T11:11:10.578Z,4.00
2018-06-02T11:12:10.205Z,8.00
2018-06-02T11:13:10.203Z,8.00
2018-06-02T11:14:10.151Z,8.00
2018-06-02T11:15:10.134Z,12.00
2018-06-02T11:16:10.101Z,12.00
2018-06-02T11:17:10.173Z,12.00
2018-06-02T11:18:10.071Z,16.00
2018-06-02T11:19:10.033Z,16.00
2018-06-02T11:20:10.134Z,24.00
2018-06-02T11:21:09.989Z,28.00
2018-06-02T11:22:10.057Z,32.00
2018-06-02T11:23:10.166Z,40.00
2018-06-02T11:24:09.929Z,40.00
2018-06-02T11:25:09.885Z,48.00
2018-06-02T11:26:09.929Z,56.00
2018-06-02T11:27:09.886Z,64.00
2018-06-02T11:28:09.858Z,72.00
2018-06-02T11:29:09.759Z,76.00
2018-06-02T11:30:09.771Z,88.00
2018-06-02T11:31:09.747Z,96.00
2018-06-02T11:32:09.786Z,104.00
2018-06-02T11:33:09.700Z,116.00
2018-06-02T11:34:09.643Z,124.00
2018-06-02T11:35:09.627Z,136.00
2018-06-02T11:36:09.580Z,144.00
2018-06-02T11:37:09.747Z,156.00
2018-06-02T11:38:09.572Z,172.00
2018-06-02T11:39:09.937Z,188.00
2018-06-02T11:40:09.722Z,200.00
2018-06-02T11:41:09.505Z,216.00
2018-06-02T11:42:09.441Z,224.00
2018-06-02T11:43:09.469Z,236.00
2018-06-02T11:44:09.504Z,252.00
2018-06-02T11:45:09.589Z,272.00
2018-06-02T11:46:09.763Z,296.00
2018-06-02T11:47:09.349Z,328.00
2018-06-02T11:48:09.329Z,360.00
2018-06-02T11:49:09.414Z,364.00
2018-06-02T11:50:09.553Z,336.00
2018-06-02T11:51:09.210Z,320.00
2018-06-02T11:52:11.274Z,324.00
2018-06-02T11:53:11.785Z,332.00
2018-06-02T11:54:10.018Z,340.00
2018-06-02T11:55:09.073Z,352.00
2018-06-02T11:56:09.074Z,380.00
2018-06-02T11:57:09.041Z,380.00
2018-06-02T11:58:09.049Z,380.00
2018-06-02T11:59:09.069Z,396.00
2018-06-02T12:00:08.961Z,412.00
2018-06-02T12:01:08.954Z,436.00
2018-06-02T12:02:08.921Z,560.00
2018-06-02T12:03:08.915Z,1196.00
2018-06-02T12:04:09.019Z,1516.00
2018-06-02T12:05:08.833Z,2000.00
2018-06-02T12:06:08.807Z,2496.00
2018-06-02T12:07:08.784Z,2640.00
2018-06-02T12:08:08.759Z,2664.00
2018-06-02T12:09:08.825Z,2688.00
2018-06-02T12:10:08.721Z,2696.00
2018-06-02T12:11:08.678Z,2768.00
2018-06-02T12:12:08.664Z,3080.00
2018-06-02T12:13:08.829Z,3120.00
2018-06-02T12:14:08.739Z,3036.00
2018-06-02T12:15:08.577Z,3008.00
2018-06-02T12:16:08.586Z,3044.00
2018-06-02T12:17:08.645Z,3060.00
2018-06-02T12:18:08.575Z,3116.00
2018-06-02T12:19:08.486Z,3156.00
2018-06-02T12:20:08.509Z,3236.00
2018-06-02T12:21:08.408Z,3308.00
2018-06-02T12:22:08.421Z,3440.00
2018-06-02T12:23:08.375Z,3516.00
2018-06-02T12:24:08.693Z,3464.00
2018-06-02T12:25:08.364Z,3344.00
2018-06-02T12:26:08.363Z,3332.00
2018-06-02T12:27:08.270Z,3212.00
2018-06-02T12:28:08.268Z,3156.00
2018-06-02T12:29:08.261Z,3052.00
2018-06-02T12:30:08.282Z,2984.00
2018-06-02T12:31:08.154Z,2932.00
2018-06-02T12:32:08.169Z,3064.00
2018-06-02T12:33:08.137Z,3128.00
2018-06-02T12:34:08.140Z,3236.00
2018-06-02T12:35:08.164Z,3324.00
2018-06-02T12:36:08.190Z,3336.00
2018-06-02T12:37:08.068Z,3276.00
2018-06-02T12:38:08.220Z,3228.00
2018-06-02T12:39:08.227Z,3240.00
2018-06-02T12:40:08.116Z,3316.00
2018-06-02T12:41:07.936Z,3208.00
2018-06-02T12:42:07.913Z,3260.00
2018-06-02T12:43:07.882Z,3468.00
2018-06-02T12:44:07.856Z,3444.00
2018-06-02T12:45:07.941Z,3480.00
2018-06-02T12:46:07.803Z,3604.00
2018-06-02T12:47:07.783Z,3836.00
2018-06-02T12:48:07.773Z,3848.00
2018-06-02T12:49:07.753Z,3728.00
2018-06-02T12:50:07.823Z,3424.00
2018-06-02T12:51:07.730Z,3132.00
2018-06-02T12:52:07.697Z,2908.00
2018-06-02T12:53:07.655Z,2700.00
2018-06-02T12:54:07.632Z,2544.00
2018-06-02T12:55:07.700Z,2412.00
2018-06-02T12:56:07.600Z,2184.00
2018-06-02T12:57:07.572Z,1904.00
2018-06-02T12:58:07.526Z,1704.00
2018-06-02T12:59:07.507Z,1600.00
2018-06-02T13:00:07.602Z,1516.00
2018-06-02T13:01:07.494Z,1468.00
2018-06-02T13:02:07.600Z,1412.00
2018-06-02T13:03:07.443Z,1416.00
2018-06-02T13:04:07.417Z,1416.00
2018-06-02T13:05:07.819Z,1432.00
2018-06-02T13:06:07.397Z,1376.00
2018-06-02T13:07:07.296Z,1392.00
2018-06-02T13:08:07.415Z,1384.00
2018-06-02T13:09:07.306Z,1384.00